Time;durP1;ratioP1;P1;durP2;ratioP2;P2;SDS_P1;SDS_P2;PMS_P1;PMS_P2;Temp;Humidity;BMP_temperature;BMP_pressure;BME280_temperature;BME280_humidity;BME280_pressure;Samples;Min_cycle;Max_cycle;Signal;HPM_P1;HPM_P2
2022/10/28 00:01:17;;;;;;;10.32;6.05;;;;;;;;;;5015182;28;20098;-74
2022/10/28 00:03:48;;;;;;;11.02;6.07;;;;;;;;;;5017388;28;20054;-75
2022/10/28 00:06:19;;;;;;;13.82;5.50;;;;;;;;;;5019474;28;20480;-74
2022/10/28 00:09:00;;;;;;;;;;;;;;;;;;5018560;28;20046;-75
2022/10/28 00:11:33;;;;;;;9.65;6.00;;;;;;;;;;5018053;28;42137;-75
2022/10/28 00:14:05;;;;;;;11.50;5.82;;;;;;;;;;5030498;28;20042;-74
2022/10/28 00:16:36;;;;;;;14.02;6.30;;;;;;;;;;5014882;28;20054;-74
2022/10/28 00:19:18;;;;;;;10.98;5.90;;;;;;;;;;5015490;28;20136;-75
2022/10/28 00:21:51;;;;;;;12.43;6.05;;;;;;;;;;5018186;28;20058;-74
2022/10/28 00:24:19;;;;;;;14.25;5.78;;;;;;;;;;5009944;28;20046;-74
2022/10/28 00:26:51;;;;;;;10.77;5.57;;;;;;;;;;5018292;28;20050;-74
2022/10/28 00:29:34;;;;;;;14.43;5.57;;;;;;;;;;5011217;28;20133;-75
2022/10/28 00:32:14;;;;;;;9.02;4.72;;;;;;;;;;5016830;28;20061;-74
2022/10/28 00:35:03;;;;;;;11.27;5.50;;;;;;;;;;5011295;28;20967;-74
2022/10/28 00:37:36;;;;;;;10.85;5.28;;;;;;;;;;5013515;28;20085;-74
2022/10/28 00:40:04;;;;;;;11.75;5.40;;;;;;;;;;5010191;28;20045;-75
2022/10/28 00:42:35;;;;;;;10.45;5.43;;;;;;;;;;5011595;28;20085;-75
2022/10/28 00:45:05;;;;;;;11.55;5.25;;;;;;;;;;5016977;28;20142;-75
2022/10/28 00:48:04;;;;;;;13.18;5.32;;;;;;;;;;5013397;28;20035;-75
2022/10/28 00:50:52;;;;;;;11.75;5.10;;;;;;;;;;5001000;28;20118;-75
2022/10/28 00:53:24;;;;;;;12.02;5.45;;;;;;;;;;5016399;28;20077;-74
2022/10/28 00:55:56;;;;;;;8.95;5.03;;;;;;;;;;5006887;28;20050;-74
2022/10/28 00:58:32;;;;;;;10.77;5.13;;;;;;;;;;5010499;28;20788;-74
2022/10/28 01:01:28;;;;;;;14.60;6.10;;;;;;;;;;5017537;28;20061;-74
2022/10/28 01:04:00;;;;;;;10.63;4.95;;;;;;;;;;5003602;28;20063;-74
2022/10/28 01:06:34;;;;;;;15.13;5.70;;;;;;;;;;5028296;28;20074;-75
2022/10/28 01:09:30;;;;;;;12.55;4.30;;;;;;;;;;5029931;28;20055;-75
2022/10/28 01:12:40;;;;;;;4.18;2.55;;;;;;;;;;5013593;28;20905;-75
2022/10/28 01:15:44;;;;;;;3.78;1.67;;;;;;;;;;5009455;28;20904;-75
2022/10/28 01:18:24;;;;;;;3.10;1.52;;;;;;;;;;4989456;28;20137;-75
2022/10/28 01:21:28;;;;;;;1.70;1.57;;;;;;;;;;5016583;28;20082;-75
2022/10/28 01:24:38;;;;;;;2.20;1.80;;;;;;;;;;5008880;28;20055;-75
2022/10/28 01:27:27;;;;;;;2.33;1.70;;;;;;;;;;5012162;28;20525;-74
2022/10/28 01:30:27;;;;;;;4.07;2.22;;;;;;;;;;5012281;28;20050;-75
2022/10/28 01:33:16;;;;;;;6.68;3.03;;;;;;;;;;4997608;28;20061;-76
2022/10/28 01:35:49;;;;;;;6.90;3.00;;;;;;;;;;5005415;28;20416;-75
2022/10/28 01:39:01;;;;;;;5.18;3.00;;;;;;;;;;5002237;28;20057;-74
2022/10/28 01:41:35;;;;;;;5.32;3.05;;;;;;;;;;5012263;28;21417;-75
2022/10/28 01:44:12;;;;;;;4.97;3.00;;;;;;;;;;5010990;28;20035;-75
2022/10/28 01:46:52;;;;;;;9.63;3.03;;;;;;;;;;5008307;28;20051;-75
2022/10/28 01:49:22;;;;;;;6.82;3.00;;;;;;;;;;5012054;28;20057;-75
2022/10/28 01:52:07;;;;;;;6.78;3.70;;;;;;;;;;5012954;28;20046;-75
2022/10/28 01:54:56;;;;;;;8.98;3.70;;;;;;;;;;5013506;28;20042;-75
2022/10/28 01:57:26;;;;;;;9.00;3.85;;;;;;;;;;5001118;28;20050;-75
2022/10/28 02:00:25;;;;;;;;;;;;;;;;;;;;;
2022/10/28 02:03:02;;;;;;;7.43;3.50;;;;;;;;;;5017511;28;20433;-74
2022/10/28 02:06:06;;;;;;;6.78;3.78;;;;;;;;;;5011718;28;20483;-75
2022/10/28 02:08:59;;;;;;;15.27;4.63;;;;;;;;;;5017510;28;20079;-75
2022/10/28 02:11:48;;;;;;;12.18;3.90;;;;;;;;;;5018137;28;20054;-74
2022/10/28 02:14:51;;;;;;;6.93;4.00;;;;;;;;;;5015967;28;20054;-75
2022/10/28 02:18:02;;;;;;;10.38;3.92;;;;;;;;;;4960302;28;20039;-74
2022/10/28 02:20:45;;;;;;;7.63;3.80;;;;;;;;;;4977541;28;20055;-74
2022/10/28 02:23:26;;;;;;;14.85;4.10;;;;;;;;;;4977506;28;20143;-75
2022/10/28 02:26:39;;;;;;;10.50;3.72;;;;;;;;;;4955660;28;21266;-75
2022/10/28 02:29:28;;;;;;;12.23;3.63;;;;;;;;;;4974219;28;20052;-74
2022/10/28 02:32:13;;;;;;;7.57;3.88;;;;;;;;;;4901541;29;20613;-75
2022/10/28 02:34:48;;;;;;;6.82;2.85;;;;;;;;;;4888230;29;20072;-74
2022/10/28 02:37:38;;;;;;;4.75;2.67;;;;;;;;;;4896245;29;20115;-75
2022/10/28 02:40:24;;;;;;;3.08;2.10;;;;;;;;;;4904922;29;20044;-75
2022/10/28 02:43:10;;;;;;;2.92;2.10;;;;;;;;;;4903734;29;20049;-75
2022/10/28 02:45:41;;;;;;;2.92;1.70;;;;;;;;;;4901925;29;20061;-75
2022/10/28 02:48:30;;;;;;;4.95;2.20;;;;;;;;;;4887726;29;20065;-75
2022/10/28 02:51:25;;;;;;;6.65;1.67;;;;;;;;;;4899356;29;20077;-74
2022/10/28 02:54:10;;;;;;;2.67;2.08;;;;;;;;;;4950400;28;20079;-75
2022/10/28 02:57:20;;;;;;;10.45;3.00;;;;;;;;;;4946207;28;20051;-75
2022/10/28 02:59:58;;;;;;;3.72;1.95;;;;;;;;;;4950755;28;20051;-75
2022/10/28 03:02:26;;;;;;;8.52;2.53;;;;;;;;;;4954702;28;20593;-75
2022/10/28 03:05:03;;;;;;;;;;;;;;;;;;;;;
2022/10/28 03:07:49;;;;;;;8.55;3.22;;;;;;;;;;4954737;28;20056;-75
2022/10/28 03:10:24;;;;;;;5.53;3.00;;;;;;;;;;5014775;28;20046;-74
2022/10/28 03:12:57;;;;;;;6.28;3.30;;;;;;;;;;5009572;28;20096;-75
2022/10/28 03:15:49;;;;;;;4.53;2.92;;;;;;;;;;5017633;28;20125;-76
2022/10/28 03:18:26;;;;;;;9.20;2.95;;;;;;;;;;5027149;28;20105;-75
2022/10/28 03:21:41;;;;;;;6.30;2.70;;;;;;;;;;5012930;28;20046;-75
2022/10/28 03:24:16;;;;;;;6.63;2.97;;;;;;;;;;5008729;28;20061;-76
2022/10/28 03:27:11;;;;;;;7.63;2.90;;;;;;;;;;5013427;28;20054;-75
2022/10/28 03:29:41;;;;;;;16.73;4.35;;;;;;;;;;5013127;28;20110;-75
2022/10/28 03:32:16;;;;;;;10.80;3.53;;;;;;;;;;5015819;28;20050;-75
2022/10/28 03:34:43;;;;;;;7.45;3.65;;;;;;;;;;5015011;28;20163;-74
2022/10/28 03:37:17;;;;;;;9.15;3.63;;;;;;;;;;5012907;28;20058;-74
2022/10/28 03:39:45;;;;;;;15.82;5.07;;;;;;;;;;5014041;28;20042;-74
2022/10/28 03:42:25;;;;;;;10.82;4.72;;;;;;;;;;5008910;28;20051;-74
2022/10/28 03:45:11;;;;;;;11.98;4.38;;;;;;;;;;5012455;28;20102;-75
2022/10/28 03:47:43;;;;;;;20.80;6.00;;;;;;;;;;5015316;28;20081;-74
2022/10/28 03:50:30;;;;;;;23.40;5.63;;;;;;;;;;5018071;28;21300;-74
2022/10/28 03:52:58;;;;;;;15.68;5.47;;;;;;;;;;5017715;28;20050;-74
2022/10/28 03:55:44;;;;;;;17.23;5.50;;;;;;;;;;5013314;28;20089;-75
2022/10/28 03:58:39;;;;;;;10.80;4.93;;;;;;;;;;5016339;28;20959;-74
2022/10/28 04:01:08;;;;;;;12.07;4.88;;;;;;;;;;5011651;28;20050;-75
2022/10/28 04:03:44;;;;;;;9.02;5.15;;;;;;;;;;5017691;28;20042;-76
2022/10/28 04:06:22;;;;;;;12.60;4.97;;;;;;;;;;5024636;28;20156;-76
2022/10/28 04:08:56;;;;;;;16.08;5.72;;;;;;;;;;5033784;28;20075;-76
2022/10/28 04:12:08;;;;;;;13.88;5.18;;;;;;;;;;5016168;28;20050;-75
2022/10/28 04:14:44;;;;;;;19.02;5.55;;;;;;;;;;5015492;28;20125;-75
2022/10/28 04:17:38;;;;;;;;;;;;;;;;;;5022145;28;20087;-76
2022/10/28 04:20:24;;;;;;;16.17;5.63;;;;;;;;;;5019193;28;41487;-76
2022/10/28 04:23:02;;;;;;;15.98;4.93;;;;;;;;;;5020440;28;20054;-75
2022/10/28 04:25:36;;;;;;;11.85;5.65;;;;;;;;;;5019371;28;20836;-76
2022/10/28 04:28:22;;;;;;;13.02;5.97;;;;;;;;;;5024788;28;20066;-75
2022/10/28 04:30:56;;;;;;;21.45;5.65;;;;;;;;;;5022849;28;20079;-75
2022/10/28 04:33:24;;;;;;;9.57;5.35;;;;;;;;;;5019796;28;20151;-75
2022/10/28 04:35:52;;;;;;;11.23;5.43;;;;;;;;;;5010972;28;20051;-75
2022/10/28 04:38:51;;;;;;;11.43;5.50;;;;;;;;;;5020424;28;20086;-76
2022/10/28 04:41:26;;;;;;;15.55;5.93;;;;;;;;;;5020306;28;20073;-75
2022/10/28 04:44:03;;;;;;;11.60;5.88;;;;;;;;;;5015686;28;20108;-75
2022/10/28 04:46:59;;;;;;;19.02;5.35;;;;;;;;;;5015726;28;20721;-75
2022/10/28 04:49:27;;;;;;;13.68;5.65;;;;;;;;;;5019828;28;20050;-74
2022/10/28 04:52:07;;;;;;;12.07;5.97;;;;;;;;;;5020765;28;20050;-75
2022/10/28 04:54:56;;;;;;;15.68;5.75;;;;;;;;;;5017959;28;20039;-75
2022/10/28 04:57:50;;;;;;;12.18;5.57;;;;;;;;;;5023207;28;20583;-75
2022/10/28 05:00:21;;;;;;;18.23;5.28;;;;;;;;;;5017650;28;20058;-75
2022/10/28 05:03:08;;;;;;;11.75;5.07;;;;;;;;;;5017454;28;20046;-76
2022/10/28 05:05:52;;;;;;;12.95;5.03;;;;;;;;;;4988656;28;20145;-76
2022/10/28 05:08:21;;;;;;;17.27;5.43;;;;;;;;;;5022879;28;20047;-76
2022/10/28 05:10:58;;;;;;;12.80;5.63;;;;;;;;;;5016886;28;20051;-76
2022/10/28 05:13:51;;;;;;;16.30;5.35;;;;;;;;;;5020075;28;20070;-75
2022/10/28 05:16:31;;;;;;;12.32;6.18;;;;;;;;;;5006890;28;20057;-75
2022/10/28 05:19:09;;;;;;;14.57;5.60;;;;;;;;;;5014400;28;20035;-75
2022/10/28 05:21:50;;;;;;;14.88;5.68;;;;;;;;;;5017411;28;20133;-75
2022/10/28 05:25:27;;;;;;;19.35;5.93;;;;;;;;;;5003935;28;20054;-75
2022/10/28 05:27:42;;;;;;;10.65;5.07;;;;;;;;;;5004773;28;20054;-75
2022/10/28 05:30:17;;;;;;;13.15;5.18;;;;;;;;;;5009857;28;20108;-75
2022/10/28 05:32:45;;;;;;;16.83;5.90;;;;;;;;;;5012461;28;20046;-76
2022/10/28 05:35:22;;;;;;;13.07;5.85;;;;;;;;;;5012886;28;20113;-76
2022/10/28 05:37:52;;;;;;;;;;;;;;;;;;5011259;28;20094;-75
2022/10/28 05:40:21;;;;;;;13.98;5.18;;;;;;;;;;5003772;28;42106;-76
2022/10/28 05:43:08;;;;;;;11.75;5.15;;;;;;;;;;5011505;28;20908;-76
2022/10/28 05:46:03;;;;;;;15.68;5.82;;;;;;;;;;5014483;28;20061;-76
2022/10/28 05:48:40;;;;;;;13.68;5.38;;;;;;;;;;5009485;28;20817;-76
2022/10/28 05:51:11;;;;;;;16.73;5.35;;;;;;;;;;5014848;28;20065;-76
2022/10/28 05:53:53;;;;;;;15.73;4.88;;;;;;;;;;5014620;28;20082;-77
2022/10/28 05:56:30;;;;;;;12.13;4.90;;;;;;;;;;5010535;28;20042;-76
2022/10/28 05:59:12;;;;;;;12.25;5.30;;;;;;;;;;4957690;28;20064;-75
2022/10/28 06:01:45;;;;;;;11.55;5.03;;;;;;;;;;4957870;28;20879;-76
2022/10/28 06:04:16;;;;;;;16.73;5.00;;;;;;;;;;4960442;28;20044;-77
2022/10/28 06:06:56;;;;;;;18.15;5.45;;;;;;;;;;4957023;28;20047;-76
2022/10/28 06:09:27;;;;;;;17.13;4.82;;;;;;;;;;4948533;28;20043;-76
2022/10/28 06:11:58;;;;;;;12.82;4.80;;;;;;;;;;4934826;28;20112;-76
2022/10/28 06:14:56;;;;;;;11.25;4.78;;;;;;;;;;4950430;28;20040;-75
2022/10/28 06:17:34;;;;;;;9.68;4.80;;;;;;;;;;4948485;28;20779;-76
2022/10/28 06:20:20;;;;;;;14.23;5.38;;;;;;;;;;4953752;28;20052;-74
2022/10/28 06:22:55;;;;;;;11.25;5.07;;;;;;;;;;4946448;28;20138;-76
2022/10/28 06:25:29;;;;;;;15.80;5.30;;;;;;;;;;4952530;28;20042;-76
2022/10/28 06:28:14;;;;;;;;;;;;;;;;;;;;;
2022/10/28 06:31:05;;;;;;;10.07;4.95;;;;;;;;;;5006398;28;20060;-76
2022/10/28 06:33:35;;;;;;;17.90;5.97;;;;;;;;;;5023102;28;20387;-76
2022/10/28 06:36:02;;;;;;;17.67;5.65;;;;;;;;;;5021003;28;20035;-76
2022/10/28 06:38:30;;;;;;;15.32;5.38;;;;;;;;;;5020318;28;20043;-76
2022/10/28 06:41:00;;;;;;;19.08;6.00;;;;;;;;;;5016346;28;20050;-75
2022/10/28 06:43:27;;;;;;;13.25;5.70;;;;;;;;;;5016484;28;20059;-77
2022/10/28 06:45:56;;;;;;;15.35;5.65;;;;;;;;;;5017570;28;20034;-76
2022/10/28 06:48:23;;;;;;;15.60;5.38;;;;;;;;;;5022683;28;20071;-75
2022/10/28 06:50:50;;;;;;;15.25;6.07;;;;;;;;;;5023471;28;20058;-75
2022/10/28 06:53:17;;;;;;;15.60;5.65;;;;;;;;;;5022305;28;20050;-75
2022/10/28 06:55:51;;;;;;;30.60;5.30;;;;;;;;;;5022939;28;20046;-75
2022/10/28 06:58:19;;;;;;;13.05;5.32;;;;;;;;;;5013937;28;20051;-74
2022/10/28 07:00:46;;;;;;;19.65;5.35;;;;;;;;;;5020468;28;20050;-74
2022/10/28 07:03:14;;;;;;;14.63;5.07;;;;;;;;;;5020367;28;20042;-75
2022/10/28 07:05:49;;;;;;;18.40;5.30;;;;;;;;;;5020745;28;20062;-75
2022/10/28 07:08:19;;;;;;;15.98;5.10;;;;;;;;;;5019768;28;20797;-75
2022/10/28 07:10:55;;;;;;;13.90;5.03;;;;;;;;;;5021515;28;20042;-76
2022/10/28 07:13:23;;;;;;;10.40;4.90;;;;;;;;;;5021310;28;20062;-75
2022/10/28 07:16:00;;;;;;;14.77;4.85;;;;;;;;;;5019923;28;20042;-74
2022/10/28 07:18:29;;;;;;;15.77;5.18;;;;;;;;;;5020516;28;20057;-74
2022/10/28 07:21:13;;;;;;;11.15;4.45;;;;;;;;;;5029352;28;20050;-74
2022/10/28 07:23:40;;;;;;;13.52;4.80;;;;;;;;;;5004680;28;20763;-74
2022/10/28 07:26:31;;;;;;;11.55;5.40;;;;;;;;;;5019828;28;20050;-75
2022/10/28 07:29:01;;;;;;;18.42;5.22;;;;;;;;;;5015252;28;20089;-75
2022/10/28 07:31:39;;;;;;;14.13;4.80;;;;;;;;;;5009447;28;20864;-74
2022/10/28 07:34:12;;;;;;;15.73;4.72;;;;;;;;;;5020621;28;20805;-74
2022/10/28 07:36:47;;;;;;;18.08;5.32;;;;;;;;;;5014714;28;20062;-75
2022/10/28 07:39:31;;;;;;;14.60;5.30;;;;;;;;;;4995917;28;20046;-75
2022/10/28 07:42:09;;;;;;;14.15;5.85;;;;;;;;;;5036756;28;20042;-76
2022/10/28 07:44:36;;;;;;;16.40;5.25;;;;;;;;;;5023157;28;20065;-75
2022/10/28 07:47:03;;;;;;;19.98;5.80;;;;;;;;;;5025774;28;20105;-74
2022/10/28 07:49:31;;;;;;;14.27;5.25;;;;;;;;;;5025277;28;20137;-75
2022/10/28 07:51:58;;;;;;;15.73;5.30;;;;;;;;;;5027328;28;20923;-75
2022/10/28 07:54:32;;;;;;;16.73;5.10;;;;;;;;;;5022008;28;20039;-76
2022/10/28 07:57:08;;;;;;;17.83;5.47;;;;;;;;;;5025799;28;20035;-73
2022/10/28 07:59:47;;;;;;;12.52;4.68;;;;;;;;;;5024557;28;20085;-75
2022/10/28 08:02:19;;;;;;;16.92;5.28;;;;;;;;;;5017472;28;20102;-75
2022/10/28 08:04:47;;;;;;;19.02;4.28;;;;;;;;;;5022683;28;20053;-75
2022/10/28 08:07:21;;;;;;;13.70;5.00;;;;;;;;;;5026678;28;20030;-75
2022/10/28 08:10:08;;;;;;;17.95;5.32;;;;;;;;;;5021841;28;20214;-75
2022/10/28 08:12:35;;;;;;;12.18;4.70;;;;;;;;;;5023111;28;20057;-75
2022/10/28 08:15:09;;;;;;;14.05;4.30;;;;;;;;;;5021592;28;20155;-75
2022/10/28 08:17:49;;;;;;;14.80;4.60;;;;;;;;;;5028353;28;20041;-75
2022/10/28 08:20:17;;;;;;;16.30;4.88;;;;;;;;;;5024538;28;20053;-75
2022/10/28 08:22:44;;;;;;;12.32;5.10;;;;;;;;;;5027173;28;20074;-76
2022/10/28 08:25:20;;;;;;;17.83;4.80;;;;;;;;;;5018983;28;20038;-75
2022/10/28 08:27:47;;;;;;;15.52;4.65;;;;;;;;;;5003296;28;20054;-75
2022/10/28 08:30:28;;;;;;;10.75;4.80;;;;;;;;;;5009622;28;20052;-75
2022/10/28 08:33:20;;;;;;;10.13;4.55;;;;;;;;;;5021656;28;20455;-75
2022/10/28 08:35:50;;;;;;;14.52;5.20;;;;;;;;;;5020880;28;20035;-75
2022/10/28 08:38:17;;;;;;;23.60;4.97;;;;;;;;;;5021905;28;20058;-75
2022/10/28 08:40:44;;;;;;;12.70;4.70;;;;;;;;;;5017355;28;20079;-74
2022/10/28 08:43:20;;;;;;;13.27;4.55;;;;;;;;;;5022378;28;20832;-75
2022/10/28 08:46:20;;;;;;;12.48;5.10;;;;;;;;;;5022003;28;20052;-75
2022/10/28 08:48:50;;;;;;;11.38;4.13;;;;;;;;;;5017929;28;20046;-75
2022/10/28 08:51:20;;;;;;;15.07;4.43;;;;;;;;;;5013750;28;20074;-74
2022/10/28 08:53:56;;;;;;;14.30;4.25;;;;;;;;;;5013800;28;20105;-75
2022/10/28 08:56:35;;;;;;;15.27;4.72;;;;;;;;;;5015898;28;20046;-75
2022/10/28 08:59:11;;;;;;;15.80;4.78;;;;;;;;;;5012436;28;20113;-75
2022/10/28 09:02:20;;;;;;;13.43;4.45;;;;;;;;;;5011045;28;20082;-74
2022/10/28 09:04:51;;;;;;;10.20;4.32;;;;;;;;;;4971283;28;20051;-74
2022/10/28 09:07:27;;;;;;;13.13;4.50;;;;;;;;;;4953420;28;20205;-75
2022/10/28 09:09:55;;;;;;;11.40;4.50;;;;;;;;;;4967372;28;20055;-75
2022/10/28 09:12:40;;;;;;;13.48;4.35;;;;;;;;;;4966512;28;20047;-75
2022/10/28 09:16:07;;;;;;;12.48;4.53;;;;;;;;;;4954282;28;20059;-75
2022/10/28 09:19:26;;;;;;;15.40;4.80;;;;;;;;;;4966178;28;20050;-76
2022/10/28 09:22:02;;;;;;;13.57;4.28;;;;;;;;;;4954145;28;20043;-75
2022/10/28 09:24:43;;;;;;;14.88;4.57;;;;;;;;;;4968207;28;20064;-77
2022/10/28 09:27:27;;;;;;;13.63;4.22;;;;;;;;;;4969084;28;20055;-75
2022/10/28 09:30:06;;;;;;;14.95;4.07;;;;;;;;;;4970221;28;20051;-76
2022/10/28 09:32:43;;;;;;;11.65;3.63;;;;;;;;;;4968535;28;20063;-74
2022/10/28 09:35:16;;;;;;;11.98;4.28;;;;;;;;;;4980971;28;20144;-76
2022/10/28 09:38:10;;;;;;;10.57;3.88;;;;;;;;;;5009516;28;20050;-76
2022/10/28 09:40:40;;;;;;;16.25;4.65;;;;;;;;;;5007840;28;20112;-76
2022/10/28 09:43:19;;;;;;;15.98;4.28;;;;;;;;;;5007323;28;20061;-76
2022/10/28 09:45:55;;;;;;;14.30;4.40;;;;;;;;;;5004381;28;20145;-76
2022/10/28 09:48:33;;;;;;;24.42;5.05;;;;;;;;;;5012032;28;20058;-75
2022/10/28 09:51:01;;;;;;;12.95;4.18;;;;;;;;;;5010920;28;20049;-75
2022/10/28 09:53:31;;;;;;;18.90;4.35;;;;;;;;;;5005922;28;20058;-74
2022/10/28 09:56:05;;;;;;;12.23;4.32;;;;;;;;;;5004855;28;20051;-74
2022/10/28 09:58:33;;;;;;;10.05;3.90;;;;;;;;;;5010394;28;20050;-76
2022/10/28 10:01:25;;;;;;;9.82;4.50;;;;;;;;;;5011406;28;20042;-76
2022/10/28 10:04:13;;;;;;;14.73;4.32;;;;;;;;;;5005834;28;20100;-76
2022/10/28 10:06:50;;;;;;;9.40;4.05;;;;;;;;;;5006993;28;20063;-75
2022/10/28 10:09:32;;;;;;;13.93;4.57;;;;;;;;;;4996050;28;20058;-73
2022/10/28 10:12:10;;;;;;;20.50;4.45;;;;;;;;;;5008886;28;20069;-75
2022/10/28 10:14:43;;;;;;;20.58;4.25;;;;;;;;;;5006147;28;20124;-73
2022/10/28 10:17:39;;;;;;;17.10;4.35;;;;;;;;;;5007333;28;20101;-74
2022/10/28 10:20:16;;;;;;;13.13;4.43;;;;;;;;;;5007212;28;20046;-74
2022/10/28 10:22:48;;;;;;;12.40;4.10;;;;;;;;;;5007081;28;20054;-75
2022/10/28 10:25:18;;;;;;;15.40;4.38;;;;;;;;;;5006110;28;20086;-75
2022/10/28 10:28:07;;;;;;;12.68;4.10;;;;;;;;;;5004560;28;20809;-74
2022/10/28 10:30:38;;;;;;;9.27;4.32;;;;;;;;;;5004582;28;20048;-74
2022/10/28 10:33:07;;;;;;;19.83;4.82;;;;;;;;;;5005501;28;20115;-75
2022/10/28 10:35:36;;;;;;;17.45;4.30;;;;;;;;;;4997344;28;21198;-74
2022/10/28 10:38:11;;;;;;;11.32;4.22;;;;;;;;;;5002622;28;20101;-74
2022/10/28 10:40:47;;;;;;;15.00;4.50;;;;;;;;;;5000762;28;20142;-73
2022/10/28 10:43:18;;;;;;;8.30;4.03;;;;;;;;;;5006752;28;20980;-74
2022/10/28 10:45:52;;;;;;;14.00;4.20;;;;;;;;;;5005379;28;20434;-74
2022/10/28 10:48:19;;;;;;;15.60;3.92;;;;;;;;;;5001009;28;20054;-73
2022/10/28 10:50:50;;;;;;;13.25;4.28;;;;;;;;;;5005863;28;20051;-74
2022/10/28 10:53:22;;;;;;;13.30;4.32;;;;;;;;;;5001226;28;20046;-74
2022/10/28 10:56:00;;;;;;;10.53;4.17;;;;;;;;;;5001715;28;20046;-75
2022/10/28 10:58:30;;;;;;;16.90;3.90;;;;;;;;;;5017551;28;20074;-74
2022/10/28 11:01:02;;;;;;;11.32;3.72;;;;;;;;;;5017347;28;20510;-74
2022/10/28 11:03:38;;;;;;;13.13;4.88;;;;;;;;;;4998794;28;20125;-75
2022/10/28 11:06:06;;;;;;;17.85;4.63;;;;;;;;;;4998879;28;20941;-74
2022/10/28 11:08:54;;;;;;;14.95;3.85;;;;;;;;;;5007033;28;20137;-73
2022/10/28 11:11:32;;;;;;;;;;;;;;;;;;;;;
2022/10/28 11:14:29;;;;;;;11.60;4.03;;;;;;;;;;4995227;28;20046;-73
2022/10/28 11:16:58;;;;;;;10.00;4.03;;;;;;;;;;4995248;28;20754;-73
2022/10/28 11:19:33;;;;;;;17.77;4.95;;;;;;;;;;4993485;28;20864;-73
2022/10/28 11:22:06;;;;;;;12.20;3.95;;;;;;;;;;5005858;28;20050;-74
2022/10/28 11:24:33;;;;;;;;;;;;;;;;;;4999676;28;20039;-73
2022/10/28 11:27:43;;;;;;;14.40;4.30;;;;;;;;;;5005977;28;43537;-74
2022/10/28 11:30:20;;;;;;;11.88;4.18;;;;;;;;;;4991031;28;20790;-73
2022/10/28 11:32:55;;;;;;;10.70;4.03;;;;;;;;;;4999355;28;20137;-73
2022/10/28 11:36:04;;;;;;;14.15;3.80;;;;;;;;;;5013372;28;20054;-73
2022/10/28 11:38:54;;;;;;;10.77;3.95;;;;;;;;;;5001185;28;20058;-73
2022/10/28 11:41:40;;;;;;;12.60;4.13;;;;;;;;;;5003225;28;20047;-74
2022/10/28 11:44:15;;;;;;;13.93;4.05;;;;;;;;;;4999813;28;20051;-74
2022/10/28 11:46:51;;;;;;;15.15;3.83;;;;;;;;;;4999345;28;20050;-74
2022/10/28 11:49:24;;;;;;;14.52;4.07;;;;;;;;;;5001889;28;20596;-74
2022/10/28 11:52:11;;;;;;;12.95;4.03;;;;;;;;;;4991813;28;20421;-73
2022/10/28 11:54:38;;;;;;;13.32;4.07;;;;;;;;;;5001134;28;20058;-74
2022/10/28 11:57:08;;;;;;;10.73;3.63;;;;;;;;;;5005948;28;20103;-74
2022/10/28 11:59:57;;;;;;;9.45;3.95;;;;;;;;;;5008100;28;20057;-74
2022/10/28 12:02:34;;;;;;;11.05;3.20;;;;;;;;;;5000538;28;20767;-73
2022/10/28 12:05:02;;;;;;;16.80;3.53;;;;;;;;;;5000561;28;20130;-76
2022/10/28 12:07:39;;;;;;;15.05;3.65;;;;;;;;;;5000074;28;20047;-73
2022/10/28 12:10:16;;;;;;;12.48;3.88;;;;;;;;;;5007291;28;20086;-73
2022/10/28 12:13:08;;;;;;;18.38;3.95;;;;;;;;;;5000415;28;20054;-74
2022/10/28 12:15:43;;;;;;;13.30;3.88;;;;;;;;;;5003414;28;20386;-74
2022/10/28 12:18:19;;;;;;;9.75;3.70;;;;;;;;;;5003905;28;20129;-74
2022/10/28 12:21:09;;;;;;;15.07;3.58;;;;;;;;;;5005603;28;20054;-73
2022/10/28 12:23:41;;;;;;;13.35;3.30;;;;;;;;;;5005658;28;20068;-74
2022/10/28 12:26:10;;;;;;;18.65;3.63;;;;;;;;;;5002729;28;20046;-73
2022/10/28 12:28:45;;;;;;;16.65;3.38;;;;;;;;;;5004523;28;20835;-73
2022/10/28 12:31:23;;;;;;;12.02;3.85;;;;;;;;;;5001183;28;20097;-74
2022/10/28 12:33:58;;;;;;;10.30;3.75;;;;;;;;;;4998892;28;20055;-75
2022/10/28 12:36:36;;;;;;;16.65;3.45;;;;;;;;;;5006820;28;20058;-73
2022/10/28 12:39:09;;;;;;;13.77;3.67;;;;;;;;;;5000755;28;20058;-73
2022/10/28 12:42:00;;;;;;;16.48;3.55;;;;;;;;;;4999822;28;20153;-73
2022/10/28 12:44:28;;;;;;;10.02;3.30;;;;;;;;;;5002407;28;20051;-74
2022/10/28 12:47:17;;;;;;;13.88;3.65;;;;;;;;;;5007670;28;20046;-74
2022/10/28 12:49:59;;;;;;;13.57;3.70;;;;;;;;;;5005252;28;20962;-75
2022/10/28 12:52:35;;;;;;;9.45;3.60;;;;;;;;;;4998872;28;20054;-74
2022/10/28 12:55:26;;;;;;;14.25;3.70;;;;;;;;;;5003753;28;20053;-73
2022/10/28 12:58:14;;;;;;;21.23;3.20;;;;;;;;;;4996404;28;20065;-74
2022/10/28 13:01:17;;;;;;;9.60;3.47;;;;;;;;;;5001398;28;21594;-74
2022/10/28 13:03:48;;;;;;;9.63;3.92;;;;;;;;;;5004661;28;20058;-73
2022/10/28 13:06:25;;;;;;;21.13;5.00;;;;;;;;;;5006992;28;20043;-73
2022/10/28 13:09:15;;;;;;;18.58;3.45;;;;;;;;;;5003257;28;20253;-73
2022/10/28 13:11:48;;;;;;;17.23;3.88;;;;;;;;;;5005381;28;20073;-74
2022/10/28 13:14:15;;;;;;;;;;;;;;;;;;5000519;28;20039;-73
2022/10/28 13:17:03;;;;;;;16.58;3.42;;;;;;;;;;5001158;28;42908;-74
2022/10/28 13:19:43;;;;;;;15.93;3.85;;;;;;;;;;4995980;28;20082;-74
2022/10/28 13:22:38;;;;;;;11.18;4.03;;;;;;;;;;5003721;28;20064;-73
2022/10/28 13:25:32;;;;;;;12.50;3.10;;;;;;;;;;5008193;28;20105;-73
2022/10/28 13:27:59;;;;;;;11.38;3.13;;;;;;;;;;5004429;28;20517;-73
2022/10/28 13:30:30;;;;;;;16.98;3.13;;;;;;;;;;4999653;28;20077;-73
2022/10/28 13:33:03;;;;;;;11.40;3.33;;;;;;;;;;4983275;28;21038;-75
2022/10/28 13:35:40;;;;;;;14.90;3.33;;;;;;;;;;4987933;28;20110;-74
2022/10/28 13:38:12;;;;;;;9.68;3.00;;;;;;;;;;4984598;28;20046;-75
2022/10/28 13:40:39;;;;;;;13.80;3.15;;;;;;;;;;4978116;28;20873;-74
2022/10/28 13:43:16;;;;;;;7.78;3.20;;;;;;;;;;4986218;28;20047;-75
2022/10/28 13:46:01;;;;;;;14.88;3.35;;;;;;;;;;4987363;28;20043;-75
2022/10/28 13:48:29;;;;;;;18.50;3.40;;;;;;;;;;4982896;28;20078;-75
2022/10/28 13:51:11;;;;;;;18.58;3.78;;;;;;;;;;4986423;28;20090;-74
2022/10/28 13:53:49;;;;;;;14.82;3.85;;;;;;;;;;4977719;28;20047;-74
2022/10/28 13:56:52;;;;;;;11.30;3.53;;;;;;;;;;4976144;28;20051;-74
2022/10/28 13:59:21;;;;;;;11.43;3.25;;;;;;;;;;4982164;28;20039;-73
2022/10/28 14:02:00;;;;;;;16.38;3.60;;;;;;;;;;4983702;28;20122;-74
2022/10/28 14:04:55;;;;;;;15.20;3.72;;;;;;;;;;4979577;28;20924;-74
2022/10/28 14:07:30;;;;;;;10.63;3.33;;;;;;;;;;4977735;28;20065;-75
2022/10/28 14:13:22;;;;;;;17.25;3.67;;;;;;;;;;4974411;28;20134;-74
2022/10/28 14:16:09;;;;;;;9.68;3.28;;;;;;;;;;4984480;28;20058;-74
2022/10/28 14:18:41;;;;;;;10.38;3.60;;;;;;;;;;4973942;28;20450;-73
2022/10/28 14:21:11;;;;;;;13.13;3.58;;;;;;;;;;4986660;28;20857;-74
2022/10/28 14:23:41;;;;;;;9.70;3.40;;;;;;;;;;4985513;28;20113;-77
2022/10/28 14:26:09;;;;;;;14.40;3.83;;;;;;;;;;4979008;28;20058;-74
2022/10/28 14:28:36;;;;;;;10.52;3.65;;;;;;;;;;4982657;28;20261;-74
2022/10/28 14:31:19;;;;;;;9.27;3.35;;;;;;;;;;4982286;28;20146;-74
2022/10/28 14:34:09;;;;;;;28.92;4.10;;;;;;;;;;5000842;28;20142;-74
2022/10/28 14:36:56;;;;;;;15.40;3.92;;;;;;;;;;5001571;28;20666;-74
2022/10/28 14:39:38;;;;;;;14.35;3.50;;;;;;;;;;5003512;28;20114;-73
2022/10/28 14:42:25;;;;;;;17.52;3.63;;;;;;;;;;5004562;28;20054;-73
2022/10/28 14:45:19;;;;;;;15.27;3.50;;;;;;;;;;5005172;28;20054;-74
2022/10/28 14:48:18;;;;;;;13.48;4.05;;;;;;;;;;5019428;28;20094;-73
2022/10/28 14:50:47;;;;;;;15.93;2.95;;;;;;;;;;5002479;28;20102;-73
2022/10/28 14:53:33;;;;;;;18.50;3.83;;;;;;;;;;5003593;28;20097;-74
2022/10/28 14:56:02;;;;;;;14.05;3.75;;;;;;;;;;4999829;28;20050;-73
2022/10/28 14:58:42;;;;;;;9.18;3.17;;;;;;;;;;5000927;28;20958;-74
2022/10/28 15:01:16;;;;;;;9.90;3.45;;;;;;;;;;5000607;28;20087;-75
2022/10/28 15:03:54;;;;;;;16.00;3.55;;;;;;;;;;5004110;28;20580;-73
2022/10/28 15:06:35;;;;;;;12.52;3.83;;;;;;;;;;4998446;28;20059;-74
2022/10/28 15:09:29;;;;;;;12.88;3.58;;;;;;;;;;5004730;28;20816;-74
2022/10/28 15:11:57;;;;;;;22.80;3.92;;;;;;;;;;4997631;28;20055;-74
2022/10/28 15:14:38;;;;;;;19.02;3.95;;;;;;;;;;4998732;28;20852;-74
2022/10/28 15:17:13;;;;;;;15.38;3.60;;;;;;;;;;4994972;28;20046;-73
2022/10/28 15:19:48;;;;;;;10.45;3.92;;;;;;;;;;4997459;28;20111;-73
2022/10/28 15:22:20;;;;;;;10.10;2.90;;;;;;;;;;4994530;28;20815;-73
2022/10/28 15:25:14;;;;;;;14.15;3.60;;;;;;;;;;5003589;28;20053;-74
2022/10/28 15:27:42;;;;;;;12.20;3.35;;;;;;;;;;5007319;28;20084;-74
2022/10/28 15:30:24;;;;;;;16.58;3.03;;;;;;;;;;5006957;28;20063;-73
2022/10/28 15:32:55;;;;;;;12.75;3.40;;;;;;;;;;5003094;28;21047;-73
2022/10/28 15:35:28;;;;;;;14.02;3.42;;;;;;;;;;5002441;28;20141;-74
2022/10/28 15:37:57;;;;;;;9.50;3.33;;;;;;;;;;5006065;28;20054;-73
2022/10/28 15:40:45;;;;;;;21.80;3.50;;;;;;;;;;5006635;28;20058;-75
2022/10/28 15:43:18;;;;;;;12.80;3.00;;;;;;;;;;5006968;28;20569;-75
2022/10/28 15:45:52;;;;;;;10.50;3.08;;;;;;;;;;5005144;28;20054;-74
2022/10/28 15:48:26;;;;;;;9.48;2.67;;;;;;;;;;5010006;28;20053;-73
2022/10/28 15:51:15;;;;;;;13.98;2.97;;;;;;;;;;5007793;28;20055;-75
2022/10/28 15:54:01;;;;;;;14.00;3.33;;;;;;;;;;5012293;28;20121;-75